Clarksburg, Illinois
Current Conditions -  °F | °C
As of 7:55 AM on Friday 31 Oct 2014 (Local Time) from K1H2 Reporting Station
Overcast Overcast  
Wind Chill: 37°   Ceiling: 2300
Heat Index: 45°   Visibility: 10mi
Dew Point: 35°   Wind: 20mph
Humidity: 68%   Direction: 330°NNW
Pressure: 30.12"   Gusts: 25mph
Location:  39.3979°N, 88.811°W
Report Text: K1H2 311255Z AUTO 33017G22KT 10SM SCT014 BKN023 OVC029 07/02 A3012 RMK AO2 T00700015
Loading
Personal Weather Stations






























Interactive Weather Map
Tropical Storm Tracking
New forecast layout! Learn more

10-Day Weather Forecast

Advertisements
Track Severe Weather on mobile